sensor_id;sensor_type;location;lat;lon;timestamp;pressure;altitude;pressure_sealevel;temperature;humidity
79129;BME280;68529;43.286;23.360;2023-04-16T00:01:47;98704.44;;;12.83;54.12
79129;BME280;68529;43.286;23.360;2023-04-16T00:04:12;98702.41;;;12.88;53.98
79129;BME280;68529;43.286;23.360;2023-04-16T00:06:38;98696.88;;;12.93;53.87
79129;BME280;68529;43.286;23.360;2023-04-16T00:09:03;98699.34;;;12.96;53.73
79129;BME280;68529;43.286;23.360;2023-04-16T00:11:29;98697.41;;;12.99;53.79
79129;BME280;68529;43.286;23.360;2023-04-16T00:13:54;98696.34;;;13.03;53.64
79129;BME280;68529;43.286;23.360;2023-04-16T00:16:19;98698.75;;;13.08;53.93
79129;BME280;68529;43.286;23.360;2023-04-16T00:18:45;98702.25;;;13.08;54.16
79129;BME280;68529;43.286;23.360;2023-04-16T00:21:11;98695.63;;;13.00;54.29
79129;BME280;68529;43.286;23.360;2023-04-16T00:23:36;98693.31;;;12.94;54.34
79129;BME280;68529;43.286;23.360;2023-04-16T00:26:02;98693.16;;;12.97;54.44
79129;BME280;68529;43.286;23.360;2023-04-16T00:28:28;98686.97;;;12.98;54.42
79129;BME280;68529;43.286;23.360;2023-04-16T00:30:54;98678.25;;;12.96;54.50
79129;BME280;68529;43.286;23.360;2023-04-16T00:33:20;98684.72;;;12.90;54.58
79129;BME280;68529;43.286;23.360;2023-04-16T00:35:46;98680.63;;;12.84;54.76
79129;BME280;68529;43.286;23.360;2023-04-16T00:38:12;98685.13;;;12.82;55.13
79129;BME280;68529;43.286;23.360;2023-04-16T00:40:38;98693.03;;;12.82;55.02
79129;BME280;68529;43.286;23.360;2023-04-16T00:43:03;98682.88;;;12.92;55.16
79129;BME280;68529;43.286;23.360;2023-04-16T00:45:29;98681.59;;;12.99;54.98
79129;BME280;68529;43.286;23.360;2023-04-16T00:47:55;98678.03;;;13.00;54.93
79129;BME280;68529;43.286;23.360;2023-04-16T00:50:22;98678.81;;;13.02;54.89
79129;BME280;68529;43.286;23.360;2023-04-16T00:52:48;98669.13;;;13.03;54.64
79129;BME280;68529;43.286;23.360;2023-04-16T00:55:14;98671.00;;;13.01;54.74
79129;BME280;68529;43.286;23.360;2023-04-16T00:57:41;98669.34;;;12.98;54.81
79129;BME280;68529;43.286;23.360;2023-04-16T01:00:07;98672.06;;;12.97;54.87
79129;BME280;68529;43.286;23.360;2023-04-16T01:02:34;98681.69;;;12.98;55.02
79129;BME280;68529;43.286;23.360;2023-04-16T01:05:00;98676.31;;;12.99;54.78
79129;BME280;68529;43.286;23.360;2023-04-16T01:07:26;98671.06;;;12.99;54.80
79129;BME280;68529;43.286;23.360;2023-04-16T01:09:51;98675.16;;;13.05;54.48
79129;BME280;68529;43.286;23.360;2023-04-16T01:12:17;98674.56;;;13.00;54.78
79129;BME280;68529;43.286;23.360;2023-04-16T01:14:42;98673.00;;;12.96;55.01
79129;BME280;68529;43.286;23.360;2023-04-16T01:17:07;98668.59;;;12.96;54.70
79129;BME280;68529;43.286;23.360;2023-04-16T01:19:33;98670.34;;;12.96;54.48
79129;BME280;68529;43.286;23.360;2023-04-16T01:22:03;98667.88;;;12.93;54.57
79129;BME280;68529;43.286;23.360;2023-04-16T01:24:29;98666.34;;;12.89;54.65
79129;BME280;68529;43.286;23.360;2023-04-16T01:26:57;98664.91;;;12.83;55.18
79129;BME280;68529;43.286;23.360;2023-04-16T01:29:22;98665.66;;;12.85;55.12
79129;BME280;68529;43.286;23.360;2023-04-16T01:31:48;98665.66;;;12.85;55.02
79129;BME280;68529;43.286;23.360;2023-04-16T01:34:13;98676.38;;;12.82;55.12
79129;BME280;68529;43.286;23.360;2023-04-16T01:36:39;98673.66;;;12.83;55.09
79129;BME280;68529;43.286;23.360;2023-04-16T01:39:04;98679.09;;;12.80;55.31
79129;BME280;68529;43.286;23.360;2023-04-16T01:41:30;98682.50;;;12.82;55.55
79129;BME280;68529;43.286;23.360;2023-04-16T01:43:56;98682.50;;;12.82;55.37
79129;BME280;68529;43.286;23.360;2023-04-16T01:46:29;98687.06;;;12.79;55.64
79129;BME280;68529;43.286;23.360;2023-04-16T01:48:56;98689.66;;;12.46;56.03
79129;BME280;68529;43.286;23.360;2023-04-16T01:51:22;98688.88;;;12.27;56.39
79129;BME280;68529;43.286;23.360;2023-04-16T01:53:48;98687.56;;;12.36;56.24
79129;BME280;68529;43.286;23.360;2023-04-16T01:56:14;98683.53;;;12.46;56.37
79129;BME280;68529;43.286;23.360;2023-04-16T01:58:40;98681.59;;;12.49;56.60
79129;BME280;68529;43.286;23.360;2023-04-16T02:01:07;98678.72;;;12.54;56.17
79129;BME280;68529;43.286;23.360;2023-04-16T02:03:32;98677.50;;;12.61;56.07
79129;BME280;68529;43.286;23.360;2023-04-16T02:05:58;98675.88;;;12.58;56.19
79129;BME280;68529;43.286;23.360;2023-04-16T02:08:24;98679.66;;;12.53;56.52
79129;BME280;68529;43.286;23.360;2023-04-16T02:10:49;98669.28;;;12.50;56.36
79129;BME280;68529;43.286;23.360;2023-04-16T02:13:15;98670.16;;;12.50;56.66
79129;BME280;68529;43.286;23.360;2023-04-16T02:15:47;98669.91;;;12.55;56.33
79129;BME280;68529;43.286;23.360;2023-04-16T02:18:13;98658.75;;;12.50;56.42
79129;BME280;68529;43.286;23.360;2023-04-16T02:20:40;98656.13;;;12.50;56.48
79129;BME280;68529;43.286;23.360;2023-04-16T02:23:06;98650.59;;;12.54;56.39
79129;BME280;68529;43.286;23.360;2023-04-16T02:25:37;98659.63;;;12.50;56.48
79129;BME280;68529;43.286;23.360;2023-04-16T02:28:02;98656.59;;;12.41;56.41
79129;BME280;68529;43.286;23.360;2023-04-16T02:30:28;98643.81;;;12.33;56.47
79129;BME280;68529;43.286;23.360;2023-04-16T02:32:53;98653.03;;;12.24;56.47
79129;BME280;68529;43.286;23.360;2023-04-16T02:35:18;98650.84;;;12.15;56.67
79129;BME280;68529;43.286;23.360;2023-04-16T02:37:44;98645.88;;;12.09;57.08
79129;BME280;68529;43.286;23.360;2023-04-16T02:40:10;98652.94;;;12.09;56.84
79129;BME280;68529;43.286;23.360;2023-04-16T02:42:35;98647.59;;;12.10;57.12
79129;BME280;68529;43.286;23.360;2023-04-16T02:45:01;98653.78;;;12.09;56.97
79129;BME280;68529;43.286;23.360;2023-04-16T02:47:26;98652.00;;;12.10;57.17
79129;BME280;68529;43.286;23.360;2023-04-16T02:49:52;98651.25;;;12.08;57.17
79129;BME280;68529;43.286;23.360;2023-04-16T02:52:17;98643.34;;;12.08;57.34
79129;BME280;68529;43.286;23.360;2023-04-16T02:54:42;98645.97;;;12.08;57.18
79129;BME280;68529;43.286;23.360;2023-04-16T02:57:08;98636.38;;;12.07;56.98
79129;BME280;68529;43.286;23.360;2023-04-16T02:59:33;98641.78;;;12.04;57.39
79129;BME280;68529;43.286;23.360;2023-04-16T03:01:59;98650.53;;;12.04;57.27
79129;BME280;68529;43.286;23.360;2023-04-16T03:04:24;98646.28;;;12.02;57.40
79129;BME280;68529;43.286;23.360;2023-04-16T03:06:50;98642.88;;;12.00;57.60
79129;BME280;68529;43.286;23.360;2023-04-16T03:09:15;98644.03;;;11.94;57.54
79129;BME280;68529;43.286;23.360;2023-04-16T03:11:41;98641.16;;;11.99;57.40
79129;BME280;68529;43.286;23.360;2023-04-16T03:14:06;98643.75;;;12.00;57.23
79129;BME280;68529;43.286;23.360;2023-04-16T03:16:32;98641.00;;;11.85;57.54
79129;BME280;68529;43.286;23.360;2023-04-16T03:18:57;98644.63;;;11.82;57.58
79129;BME280;68529;43.286;23.360;2023-04-16T03:21:22;98644.88;;;11.78;57.61
79129;BME280;68529;43.286;23.360;2023-04-16T03:23:48;98654.53;;;11.77;57.59
79129;BME280;68529;43.286;23.360;2023-04-16T03:26:13;98650.53;;;11.68;57.78
79129;BME280;68529;43.286;23.360;2023-04-16T03:28:39;98660.44;;;11.63;58.01
79129;BME280;68529;43.286;23.360;2023-04-16T03:31:04;98664.06;;;11.61;58.15
79129;BME280;68529;43.286;23.360;2023-04-16T03:33:29;98665.97;;;11.57;58.08
79129;BME280;68529;43.286;23.360;2023-04-16T03:35:56;98672.28;;;11.53;58.26
79129;BME280;68529;43.286;23.360;2023-04-16T03:38:23;98662.00;;;11.49;58.52
79129;BME280;68529;43.286;23.360;2023-04-16T03:40:48;98676.28;;;11.43;58.59
79129;BME280;68529;43.286;23.360;2023-04-16T03:43:14;98676.34;;;11.42;58.67
79129;BME280;68529;43.286;23.360;2023-04-16T03:45:43;98675.53;;;11.41;58.81
79129;BME280;68529;43.286;23.360;2023-04-16T03:48:09;98681.47;;;11.45;58.92
79129;BME280;68529;43.286;23.360;2023-04-16T03:50:34;98682.13;;;11.50;58.79
79129;BME280;68529;43.286;23.360;2023-04-16T03:53:00;98670.88;;;11.46;58.81
79129;BME280;68529;43.286;23.360;2023-04-16T03:55:25;98675.06;;;11.50;58.77
79129;BME280;68529;43.286;23.360;2023-04-16T03:57:51;98676.63;;;11.54;58.76
79129;BME280;68529;43.286;23.360;2023-04-16T04:00:16;98670.47;;;11.55;58.87
79129;BME280;68529;43.286;23.360;2023-04-16T04:02:42;98679.13;;;11.57;58.64
79129;BME280;68529;43.286;23.360;2023-04-16T04:05:08;98676.34;;;11.60;58.29
79129;BME280;68529;43.286;23.360;2023-04-16T04:07:33;98691.41;;;11.57;58.34
79129;BME280;68529;43.286;23.360;2023-04-16T04:09:58;98691.50;;;11.55;58.41
79129;BME280;68529;43.286;23.360;2023-04-16T04:12:24;98685.59;;;11.50;58.35
79129;BME280;68529;43.286;23.360;2023-04-16T04:14:49;98681.41;;;11.46;58.56
79129;BME280;68529;43.286;23.360;2023-04-16T04:17:14;98687.31;;;11.51;58.42
79129;BME280;68529;43.286;23.360;2023-04-16T04:19:40;98687.31;;;11.51;58.26
79129;BME280;68529;43.286;23.360;2023-04-16T04:22:05;98690.03;;;11.50;58.28
79129;BME280;68529;43.286;23.360;2023-04-16T04:24:31;98690.03;;;11.50;58.37
79129;BME280;68529;43.286;23.360;2023-04-16T04:26:56;98696.41;;;11.44;58.47
79129;BME280;68529;43.286;23.360;2023-04-16T04:29:22;98688.66;;;11.41;58.76
79129;BME280;68529;43.286;23.360;2023-04-16T04:31:47;98692.22;;;11.40;58.85
79129;BME280;68529;43.286;23.360;2023-04-16T04:34:13;98696.84;;;11.35;59.11
79129;BME280;68529;43.286;23.360;2023-04-16T04:36:38;98687.03;;;11.39;59.32
79129;BME280;68529;43.286;23.360;2023-04-16T04:39:03;98694.75;;;11.42;59.29
79129;BME280;68529;43.286;23.360;2023-04-16T04:41:29;98697.81;;;11.51;59.11
79129;BME280;68529;43.286;23.360;2023-04-16T04:43:55;98699.25;;;11.58;59.12
79129;BME280;68529;43.286;23.360;2023-04-16T04:46:20;98699.09;;;11.61;59.29
79129;BME280;68529;43.286;23.360;2023-04-16T04:48:46;98704.91;;;11.68;59.05
79129;BME280;68529;43.286;23.360;2023-04-16T04:51:11;98700.13;;;11.78;59.04
79129;BME280;68529;43.286;23.360;2023-04-16T04:53:37;98706.78;;;11.85;58.97
79129;BME280;68529;43.286;23.360;2023-04-16T04:56:02;98702.94;;;11.92;58.83
79129;BME280;68529;43.286;23.360;2023-04-16T04:58:27;98703.72;;;11.94;58.86
79129;BME280;68529;43.286;23.360;2023-04-16T05:00:53;98710.50;;;11.98;59.00
79129;BME280;68529;43.286;23.360;2023-04-16T05:03:19;98709.06;;;12.09;58.97
79129;BME280;68529;43.286;23.360;2023-04-16T05:05:45;98707.63;;;12.21;58.67
79129;BME280;68529;43.286;23.360;2023-04-16T05:08:11;98704.69;;;12.27;58.54
79129;BME280;68529;43.286;23.360;2023-04-16T05:10:36;98707.72;;;12.37;58.57
79129;BME280;68529;43.286;23.360;2023-04-16T05:13:01;98711.59;;;12.47;58.53
79129;BME280;68529;43.286;23.360;2023-04-16T05:15:27;98707.69;;;12.54;58.64
79129;BME280;68529;43.286;23.360;2023-04-16T05:17:52;98707.53;;;12.57;58.71
79129;BME280;68529;43.286;23.360;2023-04-16T05:20:23;98702.88;;;12.62;58.33
79129;BME280;68529;43.286;23.360;2023-04-16T05:22:49;98702.97;;;12.60;58.11
79129;BME280;68529;43.286;23.360;2023-04-16T05:25:15;98700.19;;;12.63;57.97
79129;BME280;68529;43.286;23.360;2023-04-16T05:27:41;98712.44;;;12.64;58.06
79129;BME280;68529;43.286;23.360;2023-04-16T05:30:07;98716.59;;;12.68;57.91
79129;BME280;68529;43.286;23.360;2023-04-16T05:32:33;98718.94;;;12.74;57.98
79129;BME280;68529;43.286;23.360;2023-04-16T05:34:58;98719.47;;;12.81;57.87
79129;BME280;68529;43.286;23.360;2023-04-16T05:37:24;98729.69;;;12.87;57.85
79129;BME280;68529;43.286;23.360;2023-04-16T05:39:49;98725.72;;;12.96;57.87
79129;BME280;68529;43.286;23.360;2023-04-16T05:42:15;98729.81;;;13.01;57.86
79129;BME280;68529;43.286;23.360;2023-04-16T05:44:40;98729.59;;;13.06;57.79
79129;BME280;68529;43.286;23.360;2023-04-16T05:47:06;98719.69;;;13.11;57.68
79129;BME280;68529;43.286;23.360;2023-04-16T05:49:34;98719.38;;;13.17;57.52
79129;BME280;68529;43.286;23.360;2023-04-16T05:51:59;98714.00;;;13.18;57.49
79129;BME280;68529;43.286;23.360;2023-04-16T05:54:25;98715.63;;;13.21;57.52
79129;BME280;68529;43.286;23.360;2023-04-16T05:56:50;98711.13;;;13.23;57.39
79129;BME280;68529;43.286;23.360;2023-04-16T05:59:15;98704.75;;;13.27;57.51
79129;BME280;68529;43.286;23.360;2023-04-16T06:01:41;98694.13;;;13.28;57.41
79129;BME280;68529;43.286;23.360;2023-04-16T06:04:06;98700.06;;;13.32;57.27
79129;BME280;68529;43.286;23.360;2023-04-16T06:06:31;98691.97;;;13.35;57.11
79129;BME280;68529;43.286;23.360;2023-04-16T06:08:57;98693.53;;;13.39;57.16
79129;BME280;68529;43.286;23.360;2023-04-16T06:11:22;98687.13;;;13.43;57.12
79129;BME280;68529;43.286;23.360;2023-04-16T06:13:48;98688.00;;;13.43;57.08
79129;BME280;68529;43.286;23.360;2023-04-16T06:16:13;98693.00;;;13.32;57.31
79129;BME280;68529;43.286;23.360;2023-04-16T06:18:38;98694.28;;;13.25;57.50
79129;BME280;68529;43.286;23.360;2023-04-16T06:21:04;98689.59;;;13.30;57.51
79129;BME280;68529;43.286;23.360;2023-04-16T06:23:29;98699.31;;;13.46;57.28
79129;BME280;68529;43.286;23.360;2023-04-16T06:25:55;98697.28;;;13.51;56.62
79129;BME280;68529;43.286;23.360;2023-04-16T06:28:20;98705.03;;;13.54;55.97
79129;BME280;68529;43.286;23.360;2023-04-16T06:30:46;98702.84;;;13.62;55.33
79129;BME280;68529;43.286;23.360;2023-04-16T06:33:11;98699.34;;;13.61;54.63
79129;BME280;68529;43.286;23.360;2023-04-16T06:35:37;98696.25;;;13.69;54.80
79129;BME280;68529;43.286;23.360;2023-04-16T06:38:02;98694.63;;;13.82;54.42
79129;BME280;68529;43.286;23.360;2023-04-16T06:40:28;98700.19;;;13.93;54.01
79129;BME280;68529;43.286;23.360;2023-04-16T06:42:54;98701.09;;;14.08;54.01
79129;BME280;68529;43.286;23.360;2023-04-16T06:45:20;98703.97;;;14.19;53.58
79129;BME280;68529;43.286;23.360;2023-04-16T06:47:45;98703.53;;;14.26;53.28
79129;BME280;68529;43.286;23.360;2023-04-16T06:50:12;98708.44;;;14.48;53.29
79129;BME280;68529;43.286;23.360;2023-04-16T06:52:37;98704.63;;;14.68;52.87
79129;BME280;68529;43.286;23.360;2023-04-16T06:55:03;98705.03;;;14.76;52.45
79129;BME280;68529;43.286;23.360;2023-04-16T06:57:29;98702.03;;;14.82;52.54
79129;BME280;68529;43.286;23.360;2023-04-16T06:59:54;98703.91;;;14.94;52.21
79129;BME280;68529;43.286;23.360;2023-04-16T07:02:20;98707.41;;;15.08;51.91
79129;BME280;68529;43.286;23.360;2023-04-16T07:04:45;98703.84;;;15.24;51.75
79129;BME280;68529;43.286;23.360;2023-04-16T07:07:10;98700.91;;;15.28;51.65
79129;BME280;68529;43.286;23.360;2023-04-16T07:09:36;98699.47;;;15.37;51.20
79129;BME280;68529;43.286;23.360;2023-04-16T07:12:01;98703.53;;;15.42;51.04
79129;BME280;68529;43.286;23.360;2023-04-16T07:14:27;98697.38;;;15.42;50.63
79129;BME280;68529;43.286;23.360;2023-04-16T07:16:52;98704.13;;;15.47;50.45
79129;BME280;68529;43.286;23.360;2023-04-16T07:19:17;98702.44;;;15.60;50.62
79129;BME280;68529;43.286;23.360;2023-04-16T07:21:43;98702.38;;;15.74;50.05
79129;BME280;68529;43.286;23.360;2023-04-16T07:24:09;98701.31;;;15.91;49.85
79129;BME280;68529;43.286;23.360;2023-04-16T07:26:35;98706.00;;;16.00;50.21
79129;BME280;68529;43.286;23.360;2023-04-16T07:29:01;98707.94;;;16.11;50.03
79129;BME280;68529;43.286;23.360;2023-04-16T07:31:26;98706.09;;;16.25;49.92
79129;BME280;68529;43.286;23.360;2023-04-16T07:33:52;98701.19;;;16.46;49.18
79129;BME280;68529;43.286;23.360;2023-04-16T07:36:17;98700.81;;;16.65;49.10
79129;BME280;68529;43.286;23.360;2023-04-16T07:38:42;98694.69;;;16.77;48.90
79129;BME280;68529;43.286;23.360;2023-04-16T07:41:08;98699.59;;;16.96;48.38
79129;BME280;68529;43.286;23.360;2023-04-16T07:43:33;98694.81;;;16.88;48.21
79129;BME280;68529;43.286;23.360;2023-04-16T07:45:59;98693.63;;;16.92;48.40
79129;BME280;68529;43.286;23.360;2023-04-16T07:48:24;98688.97;;;17.08;47.68
79129;BME280;68529;43.286;23.360;2023-04-16T07:50:50;98690.72;;;17.45;47.41
79129;BME280;68529;43.286;23.360;2023-04-16T07:53:15;98681.72;;;17.84;46.75
79129;BME280;68529;43.286;23.360;2023-04-16T07:55:41;98683.13;;;18.14;45.98
79129;BME280;68529;43.286;23.360;2023-04-16T07:58:06;98685.91;;;18.23;45.55
79129;BME280;68529;43.286;23.360;2023-04-16T08:00:33;98687.63;;;18.24;45.45
79129;BME280;68529;43.286;23.360;2023-04-16T08:02:59;98687.50;;;18.26;45.63
79129;BME280;68529;43.286;23.360;2023-04-16T08:05:24;98686.63;;;18.14;45.35
79129;BME280;68529;43.286;23.360;2023-04-16T08:07:50;98680.91;;;18.08;44.97
79129;BME280;68529;43.286;23.360;2023-04-16T08:10:15;98685.03;;;18.12;45.96
79129;BME280;68529;43.286;23.360;2023-04-16T08:12:41;98684.19;;;18.11;45.66
79129;BME280;68529;43.286;23.360;2023-04-16T08:15:06;98674.69;;;17.96;45.23
79129;BME280;68529;43.286;23.360;2023-04-16T08:17:32;98683.38;;;17.74;45.31
79129;BME280;68529;43.286;23.360;2023-04-16T08:19:58;98681.50;;;17.64;45.60
79129;BME280;68529;43.286;23.360;2023-04-16T08:22:24;98682.88;;;17.57;45.36
79129;BME280;68529;43.286;23.360;2023-04-16T08:24:50;98685.94;;;17.51;45.43
79129;BME280;68529;43.286;23.360;2023-04-16T08:27:16;98673.63;;;17.50;45.50
79129;BME280;68529;43.286;23.360;2023-04-16T08:29:41;98676.28;;;17.50;45.81
79129;BME280;68529;43.286;23.360;2023-04-16T08:32:07;98668.41;;;17.48;45.71
79129;BME280;68529;43.286;23.360;2023-04-16T08:34:34;98675.22;;;17.52;45.90
79129;BME280;68529;43.286;23.360;2023-04-16T08:37:00;98680.97;;;17.59;45.89
79129;BME280;68529;43.286;23.360;2023-04-16T08:39:25;98677.41;;;17.71;45.46
79129;BME280;68529;43.286;23.360;2023-04-16T08:41:52;98675.97;;;17.90;45.83
79129;BME280;68529;43.286;23.360;2023-04-16T08:44:31;98680.31;;;18.15;45.46
79129;BME280;68529;43.286;23.360;2023-04-16T08:46:58;98680.81;;;18.20;44.51
79129;BME280;68529;43.286;23.360;2023-04-16T08:49:25;98685.09;;;18.23;45.90
79129;BME280;68529;43.286;23.360;2023-04-16T08:51:54;98681.13;;;18.28;46.03
79129;BME280;68529;43.286;23.360;2023-04-16T08:54:46;98687.84;;;18.21;45.27
79129;BME280;68529;43.286;23.360;2023-04-16T08:57:18;98676.19;;;18.35;44.82
79129;BME280;68529;43.286;23.360;2023-04-16T08:59:47;98678.22;;;18.55;45.40
79129;BME280;68529;43.286;23.360;2023-04-16T09:02:13;98677.72;;;18.96;45.07
79129;BME280;68529;43.286;23.360;2023-04-16T09:04:40;98674.13;;;19.30;44.24
79129;BME280;68529;43.286;23.360;2023-04-16T09:07:07;98674.38;;;19.38;43.77
79129;BME280;68529;43.286;23.360;2023-04-16T09:09:32;98676.81;;;19.41;44.02
79129;BME280;68529;43.286;23.360;2023-04-16T09:11:58;98681.66;;;19.47;43.94
79129;BME280;68529;43.286;23.360;2023-04-16T09:14:24;98679.34;;;19.32;43.38
79129;BME280;68529;43.286;23.360;2023-04-16T09:16:52;98682.09;;;19.30;44.32
79129;BME280;68529;43.286;23.360;2023-04-16T09:19:17;98679.91;;;19.35;44.38
79129;BME280;68529;43.286;23.360;2023-04-16T09:21:45;98688.31;;;19.42;44.60
79129;BME280;68529;43.286;23.360;2023-04-16T09:24:11;98691.94;;;19.41;43.94
79129;BME280;68529;43.286;23.360;2023-04-16T09:26:37;98681.50;;;19.38;43.59
79129;BME280;68529;43.286;23.360;2023-04-16T09:29:02;98694.75;;;19.39;43.85
79129;BME280;68529;43.286;23.360;2023-04-16T09:31:28;98688.31;;;19.42;43.53
79129;BME280;68529;43.286;23.360;2023-04-16T09:34:07;98691.13;;;19.51;43.54
79129;BME280;68529;43.286;23.360;2023-04-16T09:36:33;98684.31;;;19.58;43.65
79129;BME280;68529;43.286;23.360;2023-04-16T09:39:00;98684.31;;;19.69;43.31
79129;BME280;68529;43.286;23.360;2023-04-16T09:41:30;98679.06;;;19.90;42.66
79129;BME280;68529;43.286;23.360;2023-04-16T09:44:00;98679.19;;;19.89;43.04
79129;BME280;68529;43.286;23.360;2023-04-16T09:46:30;98675.31;;;19.93;42.43
79129;BME280;68529;43.286;23.360;2023-04-16T09:49:04;98680.72;;;20.02;42.65
79129;BME280;68529;43.286;23.360;2023-04-16T09:51:36;98683.84;;;20.07;42.50
79129;BME280;68529;43.286;23.360;2023-04-16T09:54:03;98678.41;;;20.09;42.58
79129;BME280;68529;43.286;23.360;2023-04-16T09:56:29;98678.41;;;20.09;42.94
79129;BME280;68529;43.286;23.360;2023-04-16T09:58:56;98681.63;;;20.23;42.79
79129;BME280;68529;43.286;23.360;2023-04-16T10:01:22;98674.13;;;20.49;42.23
79129;BME280;68529;43.286;23.360;2023-04-16T10:03:48;98680.09;;;20.73;41.29
79129;BME280;68529;43.286;23.360;2023-04-16T10:08:51;98674.66;;;21.05;41.07
79129;BME280;68529;43.286;23.360;2023-04-16T10:11:18;98668.63;;;21.24;41.39
79129;BME280;68529;43.286;23.360;2023-04-16T10:13:44;98668.19;;;21.19;40.48
79129;BME280;68529;43.286;23.360;2023-04-16T10:16:10;98661.44;;;21.55;40.58
79129;BME280;68529;43.286;23.360;2023-04-16T10:18:37;98664.53;;;22.09;39.44
79129;BME280;68529;43.286;23.360;2023-04-16T10:21:04;98659.63;;;22.43;37.51
79129;BME280;68529;43.286;23.360;2023-04-16T10:23:29;98655.81;;;22.45;38.20
79129;BME280;68529;43.286;23.360;2023-04-16T10:25:57;98655.44;;;22.69;38.22
79129;BME280;68529;43.286;23.360;2023-04-16T10:28:23;98651.19;;;22.76;37.51
79129;BME280;68529;43.286;23.360;2023-04-16T10:30:49;98647.66;;;22.85;37.33
79129;BME280;68529;43.286;23.360;2023-04-16T10:33:20;98634.13;;;22.77;37.89
79129;BME280;68529;43.286;23.360;2023-04-16T10:35:46;98637.16;;;23.01;37.24
79129;BME280;68529;43.286;23.360;2023-04-16T10:38:25;98641.59;;;23.30;37.54
79129;BME280;68529;43.286;23.360;2023-04-16T10:40:58;98650.81;;;23.54;36.09
79129;BME280;68529;43.286;23.360;2023-04-16T10:43:24;98640.16;;;23.72;35.06
79129;BME280;68529;43.286;23.360;2023-04-16T10:45:50;98658.63;;;23.48;36.15
79129;BME280;68529;43.286;23.360;2023-04-16T10:48:17;98655.16;;;23.18;36.13
79129;BME280;68529;43.286;23.360;2023-04-16T10:50:53;98653.94;;;23.03;36.70
79129;BME280;68529;43.286;23.360;2023-04-16T10:53:23;98656.94;;;22.91;36.34
79129;BME280;68529;43.286;23.360;2023-04-16T10:58:32;98658.78;;;22.04;38.30
79129;BME280;68529;43.286;23.360;2023-04-16T11:00:59;98666.06;;;21.92;38.09
79129;BME280;68529;43.286;23.360;2023-04-16T11:03:29;98661.34;;;21.75;38.02
79129;BME280;68529;43.286;23.360;2023-04-16T11:06:15;98662.09;;;21.47;38.92
79129;BME280;68529;43.286;23.360;2023-04-16T11:08:45;98662.19;;;21.36;38.17
79129;BME280;68529;43.286;23.360;2023-04-16T11:11:11;98674.34;;;21.19;38.79
79129;BME280;68529;43.286;23.360;2023-04-16T11:13:37;98664.13;;;21.04;39.19
79129;BME280;68529;43.286;23.360;2023-04-16T11:16:06;98665.38;;;20.79;39.23
79129;BME280;68529;43.286;23.360;2023-04-16T11:18:31;98664.19;;;20.72;40.10
79129;BME280;68529;43.286;23.360;2023-04-16T11:20:57;98669.47;;;20.62;39.92
79129;BME280;68529;43.286;23.360;2023-04-16T11:23:22;98661.91;;;20.47;40.22
79129;BME280;68529;43.286;23.360;2023-04-16T11:25:48;98658.56;;;20.33;40.39
79129;BME280;68529;43.286;23.360;2023-04-16T11:28:19;98658.22;;;20.27;41.17
79129;BME280;68529;43.286;23.360;2023-04-16T11:30:45;98658.44;;;20.24;40.52
79129;BME280;68529;43.286;23.360;2023-04-16T11:33:11;98660.19;;;20.25;40.68
79129;BME280;68529;43.286;23.360;2023-04-16T11:35:37;98657.28;;;20.28;40.69
79129;BME280;68529;43.286;23.360;2023-04-16T11:38:07;98654.50;;;20.29;40.33
79129;BME280;68529;43.286;23.360;2023-04-16T11:40:33;98648.16;;;20.30;40.12
79129;BME280;68529;43.286;23.360;2023-04-16T11:43:03;98647.56;;;20.27;40.05
79129;BME280;68529;43.286;23.360;2023-04-16T11:45:31;98635.44;;;20.23;40.31
79129;BME280;68529;43.286;23.360;2023-04-16T11:47:56;98643.69;;;20.20;40.21
79129;BME280;68529;43.286;23.360;2023-04-16T11:50:26;98638.44;;;19.98;40.53
79129;BME280;68529;43.286;23.360;2023-04-16T11:52:53;98637.72;;;19.96;40.53
79129;BME280;68529;43.286;23.360;2023-04-16T11:55:20;98639.94;;;19.80;41.48
79129;BME280;68529;43.286;23.360;2023-04-16T11:57:46;98642.25;;;19.84;41.66
79129;BME280;68529;43.286;23.360;2023-04-16T12:00:12;98642.09;;;19.86;41.91
79129;BME280;68529;43.286;23.360;2023-04-16T12:02:47;98637.13;;;19.92;41.84
79129;BME280;68529;43.286;23.360;2023-04-16T12:05:37;98640.25;;;19.97;41.25
79129;BME280;68529;43.286;23.360;2023-04-16T12:08:07;98634.31;;;19.94;41.84
79129;BME280;68529;43.286;23.360;2023-04-16T12:10:36;98634.69;;;20.00;41.64
79129;BME280;68529;43.286;23.360;2023-04-16T12:13:12;98634.06;;;19.97;41.76
79129;BME280;68529;43.286;23.360;2023-04-16T12:15:51;98627.00;;;19.75;41.44
79129;BME280;68529;43.286;23.360;2023-04-16T12:18:19;98631.47;;;19.74;41.94
79129;BME280;68529;43.286;23.360;2023-04-16T12:20:45;98625.94;;;19.66;41.64
79129;BME280;68529;43.286;23.360;2023-04-16T12:23:28;98617.91;;;19.77;41.41
79129;BME280;68529;43.286;23.360;2023-04-16T12:25:54;98611.81;;;19.87;41.64
79129;BME280;68529;43.286;23.360;2023-04-16T12:28:31;98612.28;;;19.92;42.31
79129;BME280;68529;43.286;23.360;2023-04-16T12:30:57;98608.66;;;19.93;42.89
79129;BME280;68529;43.286;23.360;2023-04-16T12:33:23;98604.03;;;19.95;43.37
79129;BME280;68529;43.286;23.360;2023-04-16T12:35:49;98599.31;;;19.98;43.40
79129;BME280;68529;43.286;23.360;2023-04-16T12:38:15;98585.97;;;19.98;43.38
79129;BME280;68529;43.286;23.360;2023-04-16T12:40:41;98586.22;;;19.95;43.54
79129;BME280;68529;43.286;23.360;2023-04-16T12:43:06;98588.31;;;19.92;43.30
79129;BME280;68529;43.286;23.360;2023-04-16T12:45:33;98586.03;;;20.08;43.22
79129;BME280;68529;43.286;23.360;2023-04-16T12:47:58;98584.78;;;20.23;42.96
79129;BME280;68529;43.286;23.360;2023-04-16T12:50:24;98591.91;;;20.54;43.52
79129;BME280;68529;43.286;23.360;2023-04-16T12:52:49;98588.25;;;20.76;42.44